Time,TemperatureF,DewpointF,PressureIn,WindDirection,WindDirectionDegrees,WindSpeedMPH,WindSpeedGustMPH,Humidity,HourlyPrecipIn,Conditions,Clouds,dailyrainin,SolarRadiationWatts/m^2,SoftwareType,DateUTC
2013-01-09 00:02:00,41.0,41.0,-100.00,East,98,10.0,18.0,100,0.00,,,0.01,0.000000,,2013-01-09 08:02:00,
2013-01-09 00:12:00,41.0,41.0,-100.00,East,98,10.0,18.0,100,0.00,,,0.01,0.000000,,2013-01-09 08:12:00,
2013-01-09 00:21:00,41.0,41.0,-100.00,East,99,7.0,17.0,100,0.01,,,0.01,0.000000,,2013-01-09 08:21:00,
2013-01-09 00:43:00,41.0,41.0,-100.00,East,99,7.0,17.0,100,0.01,,,0.01,0.000000,,2013-01-09 08:43:00,
2013-01-09 00:53:00,41.0,41.0,-100.00,East,99,7.0,17.0,100,0.01,,,0.01,0.000000,,2013-01-09 08:53:00,
2013-01-09 01:02:00,41.0,41.0,-100.00,East,99,7.0,17.0,100,0.01,,,0.01,0.000000,,2013-01-09 09:02:00,
2013-01-09 01:12:00,41.0,41.0,-100.00,East,99,7.0,17.0,100,0.01,,,0.01,0.000000,,2013-01-09 09:12:00,
2013-01-09 01:21:00,43.0,43.0,-100.00,East,96,9.0,15.0,100,0.02,,,0.03,0.000000,,2013-01-09 09:21:00,
2013-01-09 01:42:00,43.0,43.0,-100.00,East,96,9.0,15.0,100,0.02,,,0.03,0.000000,,2013-01-09 09:42:00,
2013-01-09 01:53:00,43.0,43.0,-100.00,East,96,9.0,15.0,100,0.02,,,0.03,0.000000,,2013-01-09 09:53:00,
2013-01-09 02:02:00,43.0,43.0,-100.00,East,96,9.0,15.0,100,0.02,,,0.03,0.000000,,2013-01-09 10:02:00,
2013-01-09 02:11:00,43.0,43.0,-100.00,East,96,9.0,15.0,100,0.02,,,0.03,0.000000,,2013-01-09 10:11:00,
2013-01-09 02:21:00,42.0,42.0,-100.00,ESE,123,9.0,17.0,100,0.04,,,0.07,0.000000,,2013-01-09 10:21:00,
2013-01-09 02:42:00,42.0,42.0,-100.00,ESE,123,9.0,17.0,100,0.04,,,0.07,0.000000,,2013-01-09 10:42:00,
2013-01-09 02:52:00,42.0,42.0,-100.00,ESE,123,9.0,17.0,100,0.04,,,0.07,0.000000,,2013-01-09 10:52:00,
2013-01-09 03:02:00,42.0,42.0,-100.00,ESE,123,9.0,17.0,100,0.04,,,0.07,0.000000,,2013-01-09 11:02:00,
2013-01-09 03:11:00,42.0,42.0,-100.00,ESE,123,9.0,17.0,100,0.04,,,0.07,0.000000,,2013-01-09 11:11:00,
2013-01-09 03:21:00,42.0,42.0,-100.00,SE,125,10.0,22.0,100,0.03,,,0.10,0.000000,,2013-01-09 11:21:00,
2013-01-09 03:42:00,42.0,42.0,-100.00,SE,125,10.0,22.0,100,0.03,,,0.10,0.000000,,2013-01-09 11:42:00,
2013-01-09 03:53:00,42.0,42.0,-100.00,SE,125,10.0,22.0,100,0.03,,,0.10,0.000000,,2013-01-09 11:53:00,
2013-01-09 04:03:00,42.0,42.0,-100.00,SE,125,10.0,22.0,100,0.03,,,0.10,0.000000,,2013-01-09 12:03:00,
2013-01-09 04:12:00,42.0,42.0,-100.00,SE,125,10.0,22.0,100,0.03,,,0.10,0.000000,,2013-01-09 12:12:00,
2013-01-09 04:21:00,44.0,44.0,-100.00,ESE,116,13.0,26.0,100,0.02,,,0.12,0.000000,,2013-01-09 12:21:00,
2013-01-09 04:43:00,44.0,44.0,-100.00,ESE,116,13.0,26.0,100,0.02,,,0.12,0.000000,,2013-01-09 12:43:00,
2013-01-09 04:53:00,44.0,44.0,-100.00,ESE,116,13.0,26.0,100,0.02,,,0.12,0.000000,,2013-01-09 12:53:00,
2013-01-09 05:02:00,44.0,44.0,-100.00,ESE,116,13.0,26.0,100,0.02,,,0.12,0.000000,,2013-01-09 13:02:00,
2013-01-09 05:12:00,44.0,44.0,-100.00,ESE,116,13.0,26.0,100,0.02,,,0.12,0.000000,,2013-01-09 13:12:00,
2013-01-09 05:21:00,44.0,44.0,-100.00,East,92,9.0,27.0,100,0.02,,,0.14,0.000000,,2013-01-09 13:21:00,
2013-01-09 05:43:00,44.0,44.0,-100.00,East,92,9.0,27.0,100,0.02,,,0.14,0.000000,,2013-01-09 13:43:00,
2013-01-09 05:53:00,44.0,44.0,-100.00,East,92,9.0,27.0,100,0.02,,,0.14,0.000000,,2013-01-09 13:53:00,
2013-01-09 06:02:00,44.0,44.0,-100.00,East,92,9.0,27.0,100,0.02,,,0.14,0.000000,,2013-01-09 14:02:00,
2013-01-09 06:12:00,44.0,44.0,-100.00,East,92,9.0,27.0,100,0.02,,,0.14,0.000000,,2013-01-09 14:12:00,
2013-01-09 06:21:00,43.0,43.0,-100.00,SSE,153,14.0,36.0,100,0.13,,,0.27,0.000000,,2013-01-09 14:21:00,
2013-01-09 06:43:00,43.0,43.0,-100.00,SSE,153,14.0,36.0,100,0.13,,,0.27,0.000000,,2013-01-09 14:43:00,
2013-01-09 06:53:00,43.0,43.0,-100.00,SSE,153,14.0,36.0,100,0.13,,,0.27,0.000000,,2013-01-09 14:53:00,
2013-01-09 07:03:00,43.0,43.0,-100.00,SSE,153,14.0,36.0,100,0.13,,,0.27,0.000000,,2013-01-09 15:03:00,
2013-01-09 07:12:00,43.0,43.0,-100.00,SSE,153,14.0,36.0,100,0.13,,,0.27,0.000000,,2013-01-09 15:12:00,
2013-01-09 07:21:00,43.0,43.0,-100.00,SW,218,14.0,37.0,100,0.25,,,-99.99,0.000000,,2013-01-09 15:21:00,
2013-01-09 07:43:00,43.0,43.0,-100.00,SW,218,14.0,37.0,100,0.25,,,-99.99,0.000000,,2013-01-09 15:43:00,
2013-01-09 07:53:00,43.0,43.0,-100.00,SW,218,14.0,37.0,100,0.25,,,-99.99,0.000000,,2013-01-09 15:53:00,
2013-01-09 08:03:00,43.0,43.0,-100.00,SW,218,14.0,37.0,100,0.25,,,-99.99,0.000000,,2013-01-09 16:03:00,
2013-01-09 08:12:00,43.0,43.0,-100.00,SW,218,14.0,37.0,100,0.25,,,-99.99,0.000000,,2013-01-09 16:12:00,
2013-01-09 08:21:00,41.0,41.0,-100.00,SW,236,12.0,27.0,100,0.15,,,0.67,0.000000,,2013-01-09 16:21:00,
2013-01-09 08:43:00,41.0,41.0,-100.00,SW,236,12.0,27.0,100,0.15,,,0.67,0.000000,,2013-01-09 16:43:00,
2013-01-09 08:53:00,41.0,41.0,-100.00,SW,236,12.0,27.0,100,0.15,,,0.67,0.000000,,2013-01-09 16:53:00,
2013-01-09 09:02:00,41.0,41.0,-100.00,SW,236,12.0,27.0,100,0.15,,,0.67,0.000000,,2013-01-09 17:02:00,
2013-01-09 09:12:00,41.0,41.0,-100.00,SW,236,12.0,27.0,100,0.15,,,0.67,0.000000,,2013-01-09 17:12:00,
2013-01-09 09:21:00,40.0,40.0,-100.00,SW,234,13.0,27.0,100,0.13,,,0.80,6.000000,,2013-01-09 17:21:00,
2013-01-09 09:43:00,40.0,40.0,-100.00,SW,234,13.0,27.0,100,0.13,,,0.80,6.000000,,2013-01-09 17:43:00,
2013-01-09 09:53:00,40.0,40.0,-100.00,SW,234,13.0,27.0,100,0.13,,,0.80,6.000000,,2013-01-09 17:53:00,
2013-01-09 10:03:00,40.0,40.0,-100.00,SW,234,13.0,27.0,100,0.13,,,0.80,6.000000,,2013-01-09 18:03:00,
2013-01-09 10:12:00,40.0,40.0,-100.00,SW,234,13.0,27.0,100,0.13,,,0.80,6.000000,,2013-01-09 18:12:00,
2013-01-09 10:21:00,38.0,38.0,-100.00,WSW,239,9.0,22.0,100,0.04,,,0.84,22.000000,,2013-01-09 18:21:00,
2013-01-09 10:43:00,38.0,38.0,-100.00,WSW,239,9.0,22.0,100,0.04,,,0.84,22.000000,,2013-01-09 18:43:00,
2013-01-09 10:53:00,38.0,38.0,-100.00,WSW,239,9.0,22.0,100,0.04,,,0.84,22.000000,,2013-01-09 18:53:00,
2013-01-09 11:02:00,38.0,38.0,-100.00,WSW,239,9.0,22.0,100,0.04,,,0.84,22.000000,,2013-01-09 19:02:00,
2013-01-09 11:12:00,38.0,38.0,-100.00,WSW,239,9.0,22.0,100,0.04,,,0.84,22.000000,,2013-01-09 19:12:00,
2013-01-09 11:21:00,37.0,37.0,-100.00,West,262,10.0,24.0,100,0.08,,,0.92,63.000000,,2013-01-09 19:21:00,
2013-01-09 11:53:00,37.0,37.0,-100.00,West,262,10.0,24.0,100,0.08,,,0.92,63.000000,,2013-01-09 19:53:00,
2013-01-09 12:02:00,37.0,37.0,-100.00,West,262,10.0,24.0,100,0.08,,,0.92,63.000000,,2013-01-09 20:02:00,
2013-01-09 12:12:00,37.0,37.0,-100.00,West,262,10.0,24.0,100,0.08,,,0.92,63.000000,,2013-01-09 20:12:00,
2013-01-09 12:21:00,39.0,39.0,-100.00,West,281,10.0,28.0,100,0.01,,,0.93,233.000000,,2013-01-09 20:21:00,
2013-01-09 12:43:00,39.0,39.0,-100.00,West,281,10.0,28.0,100,0.01,,,0.93,233.000000,,2013-01-09 20:43:00,
2013-01-09 12:53:00,39.0,39.0,-100.00,West,281,10.0,28.0,100,0.01,,,0.93,233.000000,,2013-01-09 20:53:00,
2013-01-09 13:03:00,39.0,39.0,-100.00,West,281,10.0,28.0,100,0.01,,,0.93,233.000000,,2013-01-09 21:03:00,
2013-01-09 13:12:00,39.0,39.0,-100.00,West,281,10.0,28.0,100,0.01,,,0.93,233.000000,,2013-01-09 21:12:00,
2013-01-09 13:21:00,40.0,40.0,-100.00,West,262,7.0,20.0,100,0.00,,,0.93,251.000000,,2013-01-09 21:21:00,
2013-01-09 13:43:00,40.0,40.0,-100.00,West,262,7.0,20.0,100,0.00,,,0.93,251.000000,,2013-01-09 21:43:00,
2013-01-09 13:53:00,40.0,40.0,-100.00,West,262,7.0,20.0,100,0.00,,,0.93,251.000000,,2013-01-09 21:53:00,
2013-01-09 14:03:00,40.0,40.0,-100.00,West,262,7.0,20.0,100,0.00,,,0.93,251.000000,,2013-01-09 22:03:00,
2013-01-09 14:12:00,40.0,40.0,-100.00,West,262,7.0,20.0,100,0.00,,,0.93,251.000000,,2013-01-09 22:12:00,
2013-01-09 14:21:00,37.0,37.0,-100.00,West,271,7.0,14.0,100,0.00,,,-99.99,233.000000,,2013-01-09 22:21:00,
2013-01-09 14:43:00,37.0,37.0,-100.00,West,271,7.0,14.0,100,0.00,,,-99.99,233.000000,,2013-01-09 22:43:00,
2013-01-09 14:52:00,37.0,37.0,-100.00,West,271,7.0,14.0,100,0.00,,,-99.99,233.000000,,2013-01-09 22:52:00,
2013-01-09 15:02:00,37.0,37.0,-100.00,West,271,7.0,14.0,100,0.00,,,-99.99,233.000000,,2013-01-09 23:02:00,
2013-01-09 15:12:00,37.0,37.0,-100.00,West,271,7.0,14.0,100,0.00,,,-99.99,233.000000,,2013-01-09 23:12:00,
2013-01-09 15:21:00,37.0,36.0,-100.00,WSW,250,6.0,16.0,97,0.00,,,0.93,275.000000,,2013-01-09 23:21:00,
2013-01-09 15:43:00,37.0,36.0,-100.00,WSW,250,6.0,16.0,97,0.00,,,0.93,275.000000,,2013-01-09 23:43:00,
2013-01-09 15:53:00,37.0,36.0,-100.00,WSW,250,6.0,16.0,97,0.00,,,0.93,275.000000,,2013-01-09 23:53:00,
2013-01-09 16:02:00,37.0,36.0,-100.00,WSW,250,6.0,16.0,97,0.00,,,0.93,275.000000,,2013-01-10 00:02:00,
2013-01-09 16:12:00,37.0,36.0,-100.00,WSW,250,6.0,16.0,97,0.00,,,0.93,275.000000,,2013-01-10 00:12:00,
2013-01-09 16:21:00,36.0,36.0,-100.00,WNW,287,7.0,16.0,100,0.03,,,-99.99,44.000000,,2013-01-10 00:21:00,
2013-01-09 16:43:00,36.0,36.0,-100.00,WNW,287,7.0,16.0,100,0.03,,,-99.99,44.000000,,2013-01-10 00:43:00,
2013-01-09 16:53:00,36.0,36.0,-100.00,WNW,287,7.0,16.0,100,0.03,,,-99.99,44.000000,,2013-01-10 00:53:00,
2013-01-09 17:02:00,36.0,36.0,-100.00,WNW,287,7.0,16.0,100,0.03,,,-99.99,44.000000,,2013-01-10 01:02:00,
2013-01-09 17:12:00,36.0,36.0,-100.00,WNW,287,7.0,16.0,100,0.03,,,-99.99,44.000000,,2013-01-10 01:12:00,
2013-01-09 17:21:00,36.0,36.0,-100.00,West,269,7.0,13.0,100,0.00,,,0.96,19.000000,,2013-01-10 01:21:00,
2013-01-09 17:43:00,36.0,36.0,-100.00,West,269,7.0,13.0,100,0.00,,,0.96,19.000000,,2013-01-10 01:43:00,
2013-01-09 17:53:00,36.0,36.0,-100.00,West,269,7.0,13.0,100,0.00,,,0.96,19.000000,,2013-01-10 01:53:00,
2013-01-09 18:02:00,36.0,36.0,-100.00,West,269,7.0,13.0,100,0.00,,,0.96,19.000000,,2013-01-10 02:02:00,
2013-01-09 18:12:00,36.0,36.0,-100.00,West,269,7.0,13.0,100,0.00,,,0.96,19.000000,,2013-01-10 02:12:00,
2013-01-09 18:21:00,34.0,34.0,-100.00,WNW,287,4.0,13.0,100,0.00,,,0.96,0.000000,,2013-01-10 02:21:00,
2013-01-09 19:02:00,34.0,34.0,-100.00,WNW,287,4.0,13.0,100,0.00,,,0.96,0.000000,,2013-01-10 03:02:00,
2013-01-09 19:11:00,34.0,34.0,-100.00,WNW,287,4.0,13.0,100,0.00,,,0.96,0.000000,,2013-01-10 03:11:00,
2013-01-09 19:21:00,33.0,33.0,-100.00,WNW,283,6.0,14.0,100,0.01,,,0.97,0.000000,,2013-01-10 03:21:00,
2013-01-09 19:43:00,33.0,33.0,-100.00,WNW,283,6.0,14.0,100,0.01,,,0.97,0.000000,,2013-01-10 03:43:00,
2013-01-09 19:52:00,33.0,33.0,-100.00,WNW,283,6.0,14.0,100,0.01,,,0.97,0.000000,,2013-01-10 03:52:00,
2013-01-09 20:02:00,33.0,33.0,-100.00,WNW,283,6.0,14.0,100,0.01,,,0.97,0.000000,,2013-01-10 04:02:00,
2013-01-09 20:12:00,33.0,33.0,-100.00,WNW,283,6.0,14.0,100,0.01,,,0.97,0.000000,,2013-01-10 04:12:00,
2013-01-09 20:21:00,33.0,33.0,-100.00,WSW,257,6.0,12.0,100,0.01,,,0.98,0.000000,,2013-01-10 04:21:00,
2013-01-09 20:43:00,33.0,33.0,-100.00,WSW,257,6.0,12.0,100,0.01,,,0.98,0.000000,,2013-01-10 04:43:00,
2013-01-09 20:52:00,33.0,33.0,-100.00,WSW,257,6.0,12.0,100,0.01,,,0.98,0.000000,,2013-01-10 04:52:00,
2013-01-09 21:03:00,33.0,33.0,-100.00,WSW,257,6.0,12.0,100,0.01,,,0.98,0.000000,,2013-01-10 05:03:00,
2013-01-09 21:12:00,33.0,33.0,-100.00,WSW,257,6.0,12.0,100,0.01,,,0.98,0.000000,,2013-01-10 05:12:00,
2013-01-09 21:21:00,35.0,35.0,-100.00,West,264,6.0,12.0,100,0.01,,,0.99,0.000000,,2013-01-10 05:21:00,
2013-01-09 21:43:00,35.0,35.0,-100.00,West,264,6.0,12.0,100,0.01,,,0.99,0.000000,,2013-01-10 05:43:00,
2013-01-09 21:53:00,35.0,35.0,-100.00,West,264,6.0,12.0,100,0.01,,,0.99,0.000000,,2013-01-10 05:53:00,
2013-01-09 22:02:00,35.0,35.0,-100.00,West,264,6.0,12.0,100,0.01,,,0.99,0.000000,,2013-01-10 06:02:00,
2013-01-09 22:11:00,35.0,35.0,-100.00,West,264,6.0,12.0,100,0.01,,,0.99,0.000000,,2013-01-10 06:11:00,
2013-01-09 22:21:00,33.0,33.0,-100.00,WSW,255,7.0,13.0,100,0.01,,,1.00,0.000000,,2013-01-10 06:21:00,
2013-01-09 22:42:00,33.0,33.0,-100.00,WSW,255,7.0,13.0,100,0.01,,,1.00,0.000000,,2013-01-10 06:42:00,
2013-01-09 22:52:00,33.0,33.0,-100.00,WSW,255,7.0,13.0,100,0.01,,,1.00,0.000000,,2013-01-10 06:52:00,
2013-01-09 23:02:00,33.0,33.0,-100.00,WSW,255,7.0,13.0,100,0.01,,,1.00,0.000000,,2013-01-10 07:02:00,
2013-01-09 23:11:00,33.0,33.0,-100.00,WSW,255,7.0,13.0,100,0.01,,,1.00,0.000000,,2013-01-10 07:11:00,